sensor_id;sensor_type;location;lat;lon;timestamp;P1;durP1;ratioP1;P2;durP2;ratioP2
6689;SDS011;3382;51.576;8.076;2023-04-01T00:00:15;1.60;;;0.90;;
6689;SDS011;3382;51.576;8.076;2023-04-01T00:02:41;1.63;;;0.90;;
6689;SDS011;3382;51.576;8.076;2023-04-01T00:05:08;2.90;;;1.10;;
6689;SDS011;3382;51.576;8.076;2023-04-01T00:07:35;1.27;;;0.90;;
6689;SDS011;3382;51.576;8.076;2023-04-01T00:10:01;1.13;;;0.90;;
6689;SDS011;3382;51.576;8.076;2023-04-01T00:12:27;2.30;;;1.10;;
6689;SDS011;3382;51.576;8.076;2023-04-01T00:14:53;2.33;;;0.93;;
6689;SDS011;3382;51.576;8.076;2023-04-01T00:17:19;3.93;;;1.10;;
6689;SDS011;3382;51.576;8.076;2023-04-01T00:19:45;1.73;;;1.03;;
6689;SDS011;3382;51.576;8.076;2023-04-01T00:22:10;3.40;;;1.50;;
6689;SDS011;3382;51.576;8.076;2023-04-01T00:24:37;1.73;;;0.70;;
6689;SDS011;3382;51.576;8.076;2023-04-01T00:27:03;0.80;;;0.77;;
6689;SDS011;3382;51.576;8.076;2023-04-01T00:29:29;0.90;;;0.80;;
6689;SDS011;3382;51.576;8.076;2023-04-01T00:31:56;3.37;;;1.00;;
6689;SDS011;3382;51.576;8.076;2023-04-01T00:34:22;1.80;;;0.77;;
6689;SDS011;3382;51.576;8.076;2023-04-01T00:36:49;1.43;;;0.87;;
6689;SDS011;3382;51.576;8.076;2023-04-01T00:39:15;0.80;;;0.80;;
6689;SDS011;3382;51.576;8.076;2023-04-01T00:41:41;1.33;;;1.03;;
6689;SDS011;3382;51.576;8.076;2023-04-01T00:46:47;1.97;;;1.00;;
6689;SDS011;3382;51.576;8.076;2023-04-01T00:49:13;2.17;;;0.90;;
6689;SDS011;3382;51.576;8.076;2023-04-01T00:51:41;2.30;;;1.03;;
6689;SDS011;3382;51.576;8.076;2023-04-01T00:54:08;1.50;;;0.60;;
6689;SDS011;3382;51.576;8.076;2023-04-01T00:56:38;0.70;;;0.63;;
6689;SDS011;3382;51.576;8.076;2023-04-01T00:59:16;4.43;;;0.83;;
6689;SDS011;3382;51.576;8.076;2023-04-01T01:01:45;1.87;;;1.10;;
6689;SDS011;3382;51.576;8.076;2023-04-01T01:04:45;1.73;;;0.93;;
6689;SDS011;3382;51.576;8.076;2023-04-01T01:18:09;1.97;;;1.00;;
6689;SDS011;3382;51.576;8.076;2023-04-01T01:37:43;0.73;;;0.73;;
6689;SDS011;3382;51.576;8.076;2023-04-01T01:40:11;1.67;;;0.80;;
6689;SDS011;3382;51.576;8.076;2023-04-01T01:42:39;2.50;;;1.00;;
6689;SDS011;3382;51.576;8.076;2023-04-01T01:45:09;1.47;;;0.60;;
6689;SDS011;3382;51.576;8.076;2023-04-01T01:47:37;1.30;;;0.77;;
6689;SDS011;3382;51.576;8.076;2023-04-01T01:50:04;1.87;;;0.70;;
6689;SDS011;3382;51.576;8.076;2023-04-01T01:52:31;1.07;;;0.87;;
6689;SDS011;3382;51.576;8.076;2023-04-01T01:54:57;2.77;;;0.70;;
6689;SDS011;3382;51.576;8.076;2023-04-01T01:57:27;2.43;;;0.80;;
6689;SDS011;3382;51.576;8.076;2023-04-01T01:59:57;1.93;;;1.20;;
6689;SDS011;3382;51.576;8.076;2023-04-01T02:02:26;1.30;;;0.83;;
6689;SDS011;3382;51.576;8.076;2023-04-01T02:04:56;0.50;;;0.50;;
6689;SDS011;3382;51.576;8.076;2023-04-01T02:07:27;0.60;;;0.60;;
6689;SDS011;3382;51.576;8.076;2023-04-01T02:09:57;1.00;;;0.70;;
6689;SDS011;3382;51.576;8.076;2023-04-01T02:12:22;1.53;;;0.67;;
6689;SDS011;3382;51.576;8.076;2023-04-01T02:14:51;0.70;;;0.70;;
6689;SDS011;3382;51.576;8.076;2023-04-01T02:17:21;0.70;;;0.70;;
6689;SDS011;3382;51.576;8.076;2023-04-01T02:22:23;0.60;;;0.60;;
6689;SDS011;3382;51.576;8.076;2023-04-01T02:24:54;0.60;;;0.60;;
6689;SDS011;3382;51.576;8.076;2023-04-01T02:27:23;0.87;;;0.80;;
6689;SDS011;3382;51.576;8.076;2023-04-01T02:29:50;0.87;;;0.73;;
6689;SDS011;3382;51.576;8.076;2023-04-01T02:32:17;1.13;;;0.93;;
6689;SDS011;3382;51.576;8.076;2023-04-01T02:34:44;1.17;;;0.70;;
6689;SDS011;3382;51.576;8.076;2023-04-01T02:37:11;1.53;;;0.80;;
6689;SDS011;3382;51.576;8.076;2023-04-01T02:39:38;0.63;;;0.50;;
6689;SDS011;3382;51.576;8.076;2023-04-01T02:42:03;1.40;;;0.57;;
6689;SDS011;3382;51.576;8.076;2023-04-01T02:44:29;0.60;;;0.60;;
6689;SDS011;3382;51.576;8.076;2023-04-01T02:46:55;1.60;;;0.77;;
6689;SDS011;3382;51.576;8.076;2023-04-01T02:49:20;0.87;;;0.60;;
6689;SDS011;3382;51.576;8.076;2023-04-01T02:51:46;0.70;;;0.70;;
6689;SDS011;3382;51.576;8.076;2023-04-01T02:54:12;0.60;;;0.60;;
6689;SDS011;3382;51.576;8.076;2023-04-01T02:56:37;1.83;;;0.50;;
6689;SDS011;3382;51.576;8.076;2023-04-01T02:59:03;0.77;;;0.60;;
6689;SDS011;3382;51.576;8.076;2023-04-01T03:01:28;0.97;;;0.70;;
6689;SDS011;3382;51.576;8.076;2023-04-01T03:03:54;0.73;;;0.70;;
6689;SDS011;3382;51.576;8.076;2023-04-01T03:06:20;0.67;;;0.53;;
6689;SDS011;3382;51.576;8.076;2023-04-01T03:08:46;0.57;;;0.57;;
6689;SDS011;3382;51.576;8.076;2023-04-01T03:11:11;1.50;;;0.80;;
6689;SDS011;3382;51.576;8.076;2023-04-01T03:13:37;0.70;;;0.70;;
6689;SDS011;3382;51.576;8.076;2023-04-01T03:16:03;1.30;;;0.80;;
6689;SDS011;3382;51.576;8.076;2023-04-01T03:18:29;2.23;;;0.70;;
6689;SDS011;3382;51.576;8.076;2023-04-01T03:20:55;0.60;;;0.60;;
6689;SDS011;3382;51.576;8.076;2023-04-01T03:23:20;1.67;;;0.70;;
6689;SDS011;3382;51.576;8.076;2023-04-01T03:25:46;0.90;;;0.90;;
6689;SDS011;3382;51.576;8.076;2023-04-01T03:28:13;0.60;;;0.60;;
6689;SDS011;3382;51.576;8.076;2023-04-01T03:30:39;0.50;;;0.50;;
6689;SDS011;3382;51.576;8.076;2023-04-01T03:33:05;1.13;;;0.90;;
6689;SDS011;3382;51.576;8.076;2023-04-01T03:35:31;0.83;;;0.60;;
6689;SDS011;3382;51.576;8.076;2023-04-01T03:37:57;0.80;;;0.80;;
6689;SDS011;3382;51.576;8.076;2023-04-01T03:40:23;1.60;;;0.50;;
6689;SDS011;3382;51.576;8.076;2023-04-01T03:42:51;0.90;;;0.63;;
6689;SDS011;3382;51.576;8.076;2023-04-01T03:45:17;0.60;;;0.60;;
6689;SDS011;3382;51.576;8.076;2023-04-01T03:47:43;0.50;;;0.50;;
6689;SDS011;3382;51.576;8.076;2023-04-01T03:50:08;3.00;;;0.63;;
6689;SDS011;3382;51.576;8.076;2023-04-01T03:52:35;0.60;;;0.50;;
6689;SDS011;3382;51.576;8.076;2023-04-01T03:55:01;0.70;;;0.70;;
6689;SDS011;3382;51.576;8.076;2023-04-01T03:57:27;0.77;;;0.70;;
6689;SDS011;3382;51.576;8.076;2023-04-01T03:59:53;0.60;;;0.60;;
6689;SDS011;3382;51.576;8.076;2023-04-01T04:02:18;1.40;;;0.80;;
6689;SDS011;3382;51.576;8.076;2023-04-01T04:04:44;0.60;;;0.60;;
6689;SDS011;3382;51.576;8.076;2023-04-01T04:07:11;0.60;;;0.60;;
6689;SDS011;3382;51.576;8.076;2023-04-01T04:09:36;0.50;;;0.50;;
6689;SDS011;3382;51.576;8.076;2023-04-01T04:12:02;0.50;;;0.43;;
6689;SDS011;3382;51.576;8.076;2023-04-01T04:14:28;0.50;;;0.50;;
6689;SDS011;3382;51.576;8.076;2023-04-01T04:16:53;0.50;;;0.50;;
6689;SDS011;3382;51.576;8.076;2023-04-01T04:19:19;0.50;;;0.50;;
6689;SDS011;3382;51.576;8.076;2023-04-01T04:21:45;0.97;;;0.50;;
6689;SDS011;3382;51.576;8.076;2023-04-01T04:24:10;0.60;;;0.60;;
6689;SDS011;3382;51.576;8.076;2023-04-01T04:26:36;0.60;;;0.60;;
6689;SDS011;3382;51.576;8.076;2023-04-01T04:29:02;0.93;;;0.50;;
6689;SDS011;3382;51.576;8.076;2023-04-01T04:31:27;0.50;;;0.50;;
6689;SDS011;3382;51.576;8.076;2023-04-01T04:33:53;0.40;;;0.40;;
6689;SDS011;3382;51.576;8.076;2023-04-01T04:36:19;0.60;;;0.50;;
6689;SDS011;3382;51.576;8.076;2023-04-01T04:38:45;0.50;;;0.50;;
6689;SDS011;3382;51.576;8.076;2023-04-01T04:41:12;1.00;;;0.50;;
6689;SDS011;3382;51.576;8.076;2023-04-01T04:43:47;0.53;;;0.53;;
6689;SDS011;3382;51.576;8.076;2023-04-01T04:46:14;0.40;;;0.40;;
6689;SDS011;3382;51.576;8.076;2023-04-01T04:48:40;0.50;;;0.50;;
6689;SDS011;3382;51.576;8.076;2023-04-01T04:51:06;0.50;;;0.50;;
6689;SDS011;3382;51.576;8.076;2023-04-01T04:53:32;0.57;;;0.57;;
6689;SDS011;3382;51.576;8.076;2023-04-01T04:55:57;0.70;;;0.70;;
6689;SDS011;3382;51.576;8.076;2023-04-01T04:58:23;1.33;;;0.70;;
6689;SDS011;3382;51.576;8.076;2023-04-01T05:00:48;0.57;;;0.57;;
6689;SDS011;3382;51.576;8.076;2023-04-01T05:03:14;0.70;;;0.53;;
6689;SDS011;3382;51.576;8.076;2023-04-01T05:05:47;0.60;;;0.60;;
6689;SDS011;3382;51.576;8.076;2023-04-01T05:08:17;0.83;;;0.60;;
6689;SDS011;3382;51.576;8.076;2023-04-01T05:10:43;0.60;;;0.60;;
6689;SDS011;3382;51.576;8.076;2023-04-01T05:13:09;0.60;;;0.60;;
6689;SDS011;3382;51.576;8.076;2023-04-01T05:15:36;0.63;;;0.60;;
6689;SDS011;3382;51.576;8.076;2023-04-01T05:18:02;0.80;;;0.57;;
6689;SDS011;3382;51.576;8.076;2023-04-01T05:20:28;0.60;;;0.60;;
6689;SDS011;3382;51.576;8.076;2023-04-01T05:22:58;0.57;;;0.57;;
6689;SDS011;3382;51.576;8.076;2023-04-01T05:25:24;0.80;;;0.60;;
6689;SDS011;3382;51.576;8.076;2023-04-01T05:27:50;0.53;;;0.53;;
6689;SDS011;3382;51.576;8.076;2023-04-01T05:30:16;0.40;;;0.40;;
6689;SDS011;3382;51.576;8.076;2023-04-01T05:32:42;0.90;;;0.87;;
6689;SDS011;3382;51.576;8.076;2023-04-01T05:35:08;0.40;;;0.40;;
6689;SDS011;3382;51.576;8.076;2023-04-01T05:37:34;0.70;;;0.63;;
6689;SDS011;3382;51.576;8.076;2023-04-01T05:40:01;0.57;;;0.57;;
6689;SDS011;3382;51.576;8.076;2023-04-01T05:42:27;0.50;;;0.50;;
6689;SDS011;3382;51.576;8.076;2023-04-01T05:44:53;1.73;;;0.60;;
6689;SDS011;3382;51.576;8.076;2023-04-01T05:47:20;0.63;;;0.60;;
6689;SDS011;3382;51.576;8.076;2023-04-01T05:49:46;0.50;;;0.50;;
6689;SDS011;3382;51.576;8.076;2023-04-01T05:52:12;0.60;;;0.60;;
6689;SDS011;3382;51.576;8.076;2023-04-01T05:54:37;1.13;;;0.63;;
6689;SDS011;3382;51.576;8.076;2023-04-01T05:57:03;0.47;;;0.47;;
6689;SDS011;3382;51.576;8.076;2023-04-01T05:59:28;1.00;;;0.60;;
6689;SDS011;3382;51.576;8.076;2023-04-01T06:01:56;0.70;;;0.70;;
6689;SDS011;3382;51.576;8.076;2023-04-01T06:04:22;1.23;;;1.13;;
6689;SDS011;3382;51.576;8.076;2023-04-01T06:06:48;0.97;;;0.57;;
6689;SDS011;3382;51.576;8.076;2023-04-01T06:14:38;1.83;;;0.70;;
6689;SDS011;3382;51.576;8.076;2023-04-01T06:20:38;0.53;;;0.50;;
6689;SDS011;3382;51.576;8.076;2023-04-01T06:33:59;1.00;;;0.97;;
6689;SDS011;3382;51.576;8.076;2023-04-01T06:53:30;0.60;;;0.60;;
6689;SDS011;3382;51.576;8.076;2023-04-01T06:56:16;0.63;;;0.50;;
6689;SDS011;3382;51.576;8.076;2023-04-01T06:58:46;0.50;;;0.50;;
6689;SDS011;3382;51.576;8.076;2023-04-01T07:01:15;0.60;;;0.57;;
6689;SDS011;3382;51.576;8.076;2023-04-01T07:03:49;0.80;;;0.80;;
6689;SDS011;3382;51.576;8.076;2023-04-01T07:09:19;0.40;;;0.40;;
6689;SDS011;3382;51.576;8.076;2023-04-01T07:11:49;3.30;;;2.20;;
6689;SDS011;3382;51.576;8.076;2023-04-01T07:14:25;1.40;;;1.33;;
6689;SDS011;3382;51.576;8.076;2023-04-01T07:22:45;0.53;;;0.53;;
6689;SDS011;3382;51.576;8.076;2023-04-01T07:25:18;2.27;;;0.50;;
6689;SDS011;3382;51.576;8.076;2023-04-01T07:27:50;0.63;;;0.63;;
6689;SDS011;3382;51.576;8.076;2023-04-01T07:30:29;0.50;;;0.50;;
6689;SDS011;3382;51.576;8.076;2023-04-01T07:33:32;0.50;;;0.50;;
6689;SDS011;3382;51.576;8.076;2023-04-01T07:39:27;0.83;;;0.70;;
6689;SDS011;3382;51.576;8.076;2023-04-01T07:41:57;0.80;;;0.80;;
6689;SDS011;3382;51.576;8.076;2023-04-01T07:44:33;0.50;;;0.50;;
6689;SDS011;3382;51.576;8.076;2023-04-01T07:55:16;0.47;;;0.47;;
6689;SDS011;3382;51.576;8.076;2023-04-01T08:06:58;0.60;;;0.60;;
6689;SDS011;3382;51.576;8.076;2023-04-01T08:14:10;0.67;;;0.67;;
6689;SDS011;3382;51.576;8.076;2023-04-01T08:17:24;2.50;;;0.90;;
6689;SDS011;3382;51.576;8.076;2023-04-01T08:22:16;17.07;;;7.73;;
6689;SDS011;3382;51.576;8.076;2023-04-01T08:24:46;15.37;;;6.63;;
6689;SDS011;3382;51.576;8.076;2023-04-01T08:29:46;1.20;;;0.70;;
6689;SDS011;3382;51.576;8.076;2023-04-01T08:32:37;3.70;;;0.80;;
6689;SDS011;3382;51.576;8.076;2023-04-01T08:37:56;0.60;;;0.60;;
6689;SDS011;3382;51.576;8.076;2023-04-01T08:52:15;0.83;;;0.60;;
6689;SDS011;3382;51.576;8.076;2023-04-01T08:55:00;0.70;;;0.60;;
6689;SDS011;3382;51.576;8.076;2023-04-01T08:57:39;0.80;;;0.80;;
6689;SDS011;3382;51.576;8.076;2023-04-01T09:00:17;1.40;;;0.70;;
6689;SDS011;3382;51.576;8.076;2023-04-01T09:22:41;2.43;;;1.23;;
6689;SDS011;3382;51.576;8.076;2023-04-01T09:28:53;1.37;;;0.90;;
6689;SDS011;3382;51.576;8.076;2023-04-01T09:32:04;2.90;;;2.07;;
6689;SDS011;3382;51.576;8.076;2023-04-01T09:43:00;0.87;;;0.87;;
6689;SDS011;3382;51.576;8.076;2023-04-01T09:45:55;0.70;;;0.70;;
6689;SDS011;3382;51.576;8.076;2023-04-01T09:51:20;0.70;;;0.70;;
6689;SDS011;3382;51.576;8.076;2023-04-01T09:54:01;13.23;;;3.93;;
6689;SDS011;3382;51.576;8.076;2023-04-01T10:11:01;1.70;;;0.70;;
6689;SDS011;3382;51.576;8.076;2023-04-01T10:22:27;3.63;;;1.63;;
6689;SDS011;3382;51.576;8.076;2023-04-01T10:38:59;0.70;;;0.67;;
6689;SDS011;3382;51.576;8.076;2023-04-01T10:47:19;1.20;;;1.00;;
6689;SDS011;3382;51.576;8.076;2023-04-01T11:01:06;1.87;;;1.20;;
6689;SDS011;3382;51.576;8.076;2023-04-01T11:32:13;4.30;;;1.03;;
6689;SDS011;3382;51.576;8.076;2023-04-01T11:37:54;1.63;;;1.30;;
6689;SDS011;3382;51.576;8.076;2023-04-01T11:40:45;1.10;;;1.10;;
6689;SDS011;3382;51.576;8.076;2023-04-01T11:46:12;1.27;;;1.20;;
6689;SDS011;3382;51.576;8.076;2023-04-01T11:48:48;1.60;;;1.23;;
6689;SDS011;3382;51.576;8.076;2023-04-01T11:56:38;2.20;;;1.80;;
6689;SDS011;3382;51.576;8.076;2023-04-01T12:02:08;1.93;;;1.83;;
6689;SDS011;3382;51.576;8.076;2023-04-01T12:07:19;3.13;;;2.07;;
6689;SDS011;3382;51.576;8.076;2023-04-01T12:12:38;2.23;;;2.03;;
6689;SDS011;3382;51.576;8.076;2023-04-01T12:15:22;2.77;;;2.57;;
6689;SDS011;3382;51.576;8.076;2023-04-01T12:17:50;2.40;;;2.20;;
6689;SDS011;3382;51.576;8.076;2023-04-01T12:20:49;2.33;;;2.10;;
6689;SDS011;3382;51.576;8.076;2023-04-01T12:37:33;1.43;;;1.27;;
6689;SDS011;3382;51.576;8.076;2023-04-01T12:40:17;1.63;;;1.47;;
6689;SDS011;3382;51.576;8.076;2023-04-01T12:59:38;1.37;;;1.27;;
6689;SDS011;3382;51.576;8.076;2023-04-01T13:05:01;1.90;;;1.07;;
6689;SDS011;3382;51.576;8.076;2023-04-01T13:13:25;1.17;;;0.83;;
6689;SDS011;3382;51.576;8.076;2023-04-01T13:21:05;2.10;;;1.00;;
6689;SDS011;3382;51.576;8.076;2023-04-01T13:24:09;1.83;;;0.90;;
6689;SDS011;3382;51.576;8.076;2023-04-01T13:26:56;1.10;;;1.00;;
6689;SDS011;3382;51.576;8.076;2023-04-01T13:29:32;1.30;;;1.20;;
6689;SDS011;3382;51.576;8.076;2023-04-01T13:32:13;1.10;;;1.10;;
6689;SDS011;3382;51.576;8.076;2023-04-01T13:37:38;1.10;;;1.10;;
6689;SDS011;3382;51.576;8.076;2023-04-01T13:40:32;1.13;;;1.13;;
6689;SDS011;3382;51.576;8.076;2023-04-01T13:43:15;1.10;;;1.10;;
6689;SDS011;3382;51.576;8.076;2023-04-01T13:46:12;1.93;;;1.30;;
6689;SDS011;3382;51.576;8.076;2023-04-01T14:17:31;1.40;;;1.13;;
6689;SDS011;3382;51.576;8.076;2023-04-01T14:39:56;1.80;;;1.70;;
6689;SDS011;3382;51.576;8.076;2023-04-01T14:51:10;1.60;;;1.50;;
6689;SDS011;3382;51.576;8.076;2023-04-01T14:56:36;1.70;;;1.60;;
6689;SDS011;3382;51.576;8.076;2023-04-01T14:59:14;1.50;;;1.40;;
6689;SDS011;3382;51.576;8.076;2023-04-01T15:38:19;3.87;;;3.03;;
6689;SDS011;3382;51.576;8.076;2023-04-01T15:41:10;2.50;;;2.30;;
6689;SDS011;3382;51.576;8.076;2023-04-01T15:46:29;3.60;;;3.10;;
6689;SDS011;3382;51.576;8.076;2023-04-01T15:51:52;3.70;;;3.40;;
6689;SDS011;3382;51.576;8.076;2023-04-01T15:54:31;3.10;;;2.90;;
6689;SDS011;3382;51.576;8.076;2023-04-01T16:02:48;1.83;;;1.70;;
6689;SDS011;3382;51.576;8.076;2023-04-01T16:06:01;2.00;;;1.80;;
6689;SDS011;3382;51.576;8.076;2023-04-01T16:13:56;1.93;;;1.80;;
6689;SDS011;3382;51.576;8.076;2023-04-01T16:17:45;2.07;;;1.87;;
6689;SDS011;3382;51.576;8.076;2023-04-01T16:19:49;1.93;;;1.73;;
6689;SDS011;3382;51.576;8.076;2023-04-01T16:25:57;1.87;;;1.77;;
6689;SDS011;3382;51.576;8.076;2023-04-01T16:28:15;4.10;;;1.70;;
6689;SDS011;3382;51.576;8.076;2023-04-01T16:31:03;2.10;;;1.80;;
6689;SDS011;3382;51.576;8.076;2023-04-01T16:42:49;1.80;;;1.70;;
6689;SDS011;3382;51.576;8.076;2023-04-01T16:56:12;3.30;;;3.00;;
6689;SDS011;3382;51.576;8.076;2023-04-01T17:01:29;3.50;;;3.20;;
6689;SDS011;3382;51.576;8.076;2023-04-01T17:04:10;4.67;;;3.77;;
6689;SDS011;3382;51.576;8.076;2023-04-01T17:06:45;4.37;;;3.50;;
6689;SDS011;3382;51.576;8.076;2023-04-01T17:15:45;5.47;;;4.43;;
6689;SDS011;3382;51.576;8.076;2023-04-01T17:18:48;4.70;;;4.30;;
6689;SDS011;3382;51.576;8.076;2023-04-01T17:24:17;5.00;;;4.50;;
6689;SDS011;3382;51.576;8.076;2023-04-01T17:26:50;6.83;;;4.70;;
6689;SDS011;3382;51.576;8.076;2023-04-01T17:32:37;6.20;;;4.80;;
6689;SDS011;3382;51.576;8.076;2023-04-01T17:43:41;4.60;;;3.87;;
6689;SDS011;3382;51.576;8.076;2023-04-01T17:48:55;6.93;;;5.23;;
6689;SDS011;3382;51.576;8.076;2023-04-01T17:51:50;8.80;;;5.40;;
6689;SDS011;3382;51.576;8.076;2023-04-01T17:59:36;8.63;;;7.00;;
6689;SDS011;3382;51.576;8.076;2023-04-01T18:07:51;9.47;;;7.40;;
6689;SDS011;3382;51.576;8.076;2023-04-01T18:19:08;8.87;;;7.97;;
6689;SDS011;3382;51.576;8.076;2023-04-01T18:22:09;12.93;;;9.23;;
6689;SDS011;3382;51.576;8.076;2023-04-01T18:24:43;8.70;;;7.37;;
6689;SDS011;3382;51.576;8.076;2023-04-01T18:27:31;8.33;;;7.37;;
6689;SDS011;3382;51.576;8.076;2023-04-01T18:30:07;12.17;;;8.40;;
6689;SDS011;3382;51.576;8.076;2023-04-01T18:32:52;10.13;;;8.53;;
6689;SDS011;3382;51.576;8.076;2023-04-01T18:35:44;11.43;;;9.23;;
6689;SDS011;3382;51.576;8.076;2023-04-01T18:38:29;11.60;;;9.07;;
6689;SDS011;3382;51.576;8.076;2023-04-01T18:41:13;11.27;;;8.70;;
6689;SDS011;3382;51.576;8.076;2023-04-01T18:44:16;12.53;;;8.67;;
6689;SDS011;3382;51.576;8.076;2023-04-01T18:47:00;10.27;;;7.90;;
6689;SDS011;3382;51.576;8.076;2023-04-01T18:50:00;10.83;;;9.00;;
6689;SDS011;3382;51.576;8.076;2023-04-01T18:52:37;9.00;;;8.10;;
6689;SDS011;3382;51.576;8.076;2023-04-01T18:55:22;11.17;;;8.53;;
6689;SDS011;3382;51.576;8.076;2023-04-01T18:57:58;7.63;;;6.83;;
6689;SDS011;3382;51.576;8.076;2023-04-01T19:00:41;10.77;;;7.77;;
6689;SDS011;3382;51.576;8.076;2023-04-01T19:05:47;8.87;;;7.93;;
6689;SDS011;3382;51.576;8.076;2023-04-01T19:08:28;10.17;;;8.70;;
6689;SDS011;3382;51.576;8.076;2023-04-01T19:21:47;9.67;;;7.07;;
6689;SDS011;3382;51.576;8.076;2023-04-01T19:33:06;7.47;;;6.17;;
6689;SDS011;3382;51.576;8.076;2023-04-01T19:38:36;6.67;;;6.00;;
6689;SDS011;3382;51.576;8.076;2023-04-01T19:41:15;6.87;;;6.07;;
6689;SDS011;3382;51.576;8.076;2023-04-01T19:44:09;7.03;;;6.10;;
6689;SDS011;3382;51.576;8.076;2023-04-01T19:52:29;6.83;;;5.90;;
6689;SDS011;3382;51.576;8.076;2023-04-01T19:58:03;8.97;;;8.07;;
6689;SDS011;3382;51.576;8.076;2023-04-01T20:00:34;8.83;;;7.93;;
6689;SDS011;3382;51.576;8.076;2023-04-01T20:08:33;9.13;;;8.17;;
6689;SDS011;3382;51.576;8.076;2023-04-01T20:14:01;7.50;;;6.47;;
6689;SDS011;3382;51.576;8.076;2023-04-01T20:16:39;8.83;;;6.43;;
6689;SDS011;3382;51.576;8.076;2023-04-01T20:19:26;3.80;;;3.40;;
6689;SDS011;3382;51.576;8.076;2023-04-01T20:21:59;6.27;;;5.47;;
6689;SDS011;3382;51.576;8.076;2023-04-01T20:24:33;4.47;;;3.30;;
6689;SDS011;3382;51.576;8.076;2023-04-01T20:27:06;3.90;;;2.80;;
6689;SDS011;3382;51.576;8.076;2023-04-01T20:29:47;3.07;;;2.87;;
6689;SDS011;3382;51.576;8.076;2023-04-01T20:32:31;2.63;;;2.43;;
6689;SDS011;3382;51.576;8.076;2023-04-01T20:38:12;3.10;;;2.80;;
6689;SDS011;3382;51.576;8.076;2023-04-01T20:40:46;3.30;;;2.97;;
6689;SDS011;3382;51.576;8.076;2023-04-01T20:51:14;2.97;;;2.70;;
6689;SDS011;3382;51.576;8.076;2023-04-01T21:18:13;3.83;;;3.13;;
6689;SDS011;3382;51.576;8.076;2023-04-01T21:23:18;3.50;;;3.20;;
6689;SDS011;3382;51.576;8.076;2023-04-01T21:29:14;2.83;;;2.63;;
6689;SDS011;3382;51.576;8.076;2023-04-01T21:41:58;2.50;;;2.30;;
6689;SDS011;3382;51.576;8.076;2023-04-01T21:44:37;3.40;;;2.90;;
6689;SDS011;3382;51.576;8.076;2023-04-01T21:47:28;3.10;;;2.90;;
6689;SDS011;3382;51.576;8.076;2023-04-01T22:12:35;2.63;;;2.43;;
6689;SDS011;3382;51.576;8.076;2023-04-01T22:20:59;2.63;;;2.43;;
6689;SDS011;3382;51.576;8.076;2023-04-01T22:23:45;3.00;;;2.80;;
6689;SDS011;3382;51.576;8.076;2023-04-01T22:29:20;2.90;;;2.50;;
6689;SDS011;3382;51.576;8.076;2023-04-01T22:32:21;2.30;;;2.10;;
6689;SDS011;3382;51.576;8.076;2023-04-01T22:37:23;2.33;;;2.13;;
6689;SDS011;3382;51.576;8.076;2023-04-01T22:56:11;2.60;;;2.40;;
6689;SDS011;3382;51.576;8.076;2023-04-01T22:58:42;2.50;;;2.30;;
6689;SDS011;3382;51.576;8.076;2023-04-01T23:01:19;2.63;;;2.43;;
6689;SDS011;3382;51.576;8.076;2023-04-01T23:03:49;2.50;;;2.30;;
6689;SDS011;3382;51.576;8.076;2023-04-01T23:06:27;2.90;;;2.60;;
6689;SDS011;3382;51.576;8.076;2023-04-01T23:25:32;3.57;;;3.30;;
6689;SDS011;3382;51.576;8.076;2023-04-01T23:27:43;3.40;;;3.10;;
6689;SDS011;3382;51.576;8.076;2023-04-01T23:35:46;3.17;;;2.97;;
6689;SDS011;3382;51.576;8.076;2023-04-01T23:38:15;3.70;;;3.40;;
6689;SDS011;3382;51.576;8.076;2023-04-01T23:40:42;3.93;;;3.63;;
6689;SDS011;3382;51.576;8.076;2023-04-01T23:43:15;7.13;;;4.17;;
6689;SDS011;3382;51.576;8.076;2023-04-01T23:46:05;3.97;;;3.67;;
6689;SDS011;3382;51.576;8.076;2023-04-01T23:48:36;4.07;;;3.77;;
6689;SDS011;3382;51.576;8.076;2023-04-01T23:51:16;4.00;;;3.70;;
6689;SDS011;3382;51.576;8.076;2023-04-01T23:56:53;4.23;;;3.93;;
6689;SDS011;3382;51.576;8.076;2023-04-01T23:59:24;4.43;;;4.10;;
